sensor_id;sensor_type;location;lat;lon;timestamp;P1;durP1;ratioP1;P2;durP2;ratioP2
17987;SDS011;9119;50.932;5.342;2023-07-08T00:02:08;165.73;;;98.60;;
17987;SDS011;9119;50.932;5.342;2023-07-08T00:04:35;56.80;;;32.03;;
17987;SDS011;9119;50.932;5.342;2023-07-08T00:07:01;250.17;;;144.63;;
17987;SDS011;9119;50.932;5.342;2023-07-08T00:09:27;138.03;;;78.60;;
17987;SDS011;9119;50.932;5.342;2023-07-08T00:11:52;66.17;;;40.73;;
17987;SDS011;9119;50.932;5.342;2023-07-08T00:14:18;190.17;;;114.00;;
17987;SDS011;9119;50.932;5.342;2023-07-08T00:16:44;132.87;;;76.27;;
17987;SDS011;9119;50.932;5.342;2023-07-08T00:19:10;36.93;;;21.33;;
17987;SDS011;9119;50.932;5.342;2023-07-08T00:21:36;36.77;;;17.37;;
17987;SDS011;9119;50.932;5.342;2023-07-08T00:24:02;32.07;;;20.63;;
17987;SDS011;9119;50.932;5.342;2023-07-08T00:26:28;88.67;;;52.73;;
17987;SDS011;9119;50.932;5.342;2023-07-08T00:28:55;139.10;;;86.00;;
17987;SDS011;9119;50.932;5.342;2023-07-08T00:31:22;104.23;;;62.10;;
17987;SDS011;9119;50.932;5.342;2023-07-08T00:33:52;419.83;;;261.87;;
17987;SDS011;9119;50.932;5.342;2023-07-08T00:36:22;418.43;;;261.47;;
17987;SDS011;9119;50.932;5.342;2023-07-08T00:38:49;428.80;;;255.77;;
17987;SDS011;9119;50.932;5.342;2023-07-08T00:41:20;342.50;;;211.07;;
17987;SDS011;9119;50.932;5.342;2023-07-08T00:43:58;36.07;;;19.90;;
17987;SDS011;9119;50.932;5.342;2023-07-08T00:51:50;74.07;;;40.97;;
17987;SDS011;9119;50.932;5.342;2023-07-08T00:54:16;46.77;;;29.23;;
17987;SDS011;9119;50.932;5.342;2023-07-08T00:56:48;85.87;;;51.43;;
17987;SDS011;9119;50.932;5.342;2023-07-08T00:59:29;33.77;;;17.23;;
17987;SDS011;9119;50.932;5.342;2023-07-08T01:02:02;60.20;;;36.83;;
17987;SDS011;9119;50.932;5.342;2023-07-08T01:04:35;52.73;;;30.70;;
17987;SDS011;9119;50.932;5.342;2023-07-08T01:07:07;53.17;;;28.83;;
17987;SDS011;9119;50.932;5.342;2023-07-08T01:09:41;195.90;;;112.93;;
17987;SDS011;9119;50.932;5.342;2023-07-08T01:12:13;105.97;;;61.60;;
17987;SDS011;9119;50.932;5.342;2023-07-08T01:14:43;44.40;;;24.63;;
17987;SDS011;9119;50.932;5.342;2023-07-08T01:17:10;25.53;;;13.53;;
17987;SDS011;9119;50.932;5.342;2023-07-08T01:19:39;22.93;;;10.37;;
17987;SDS011;9119;50.932;5.342;2023-07-08T01:22:08;27.90;;;16.80;;
17987;SDS011;9119;50.932;5.342;2023-07-08T01:24:35;55.00;;;30.27;;
17987;SDS011;9119;50.932;5.342;2023-07-08T01:27:04;240.17;;;140.37;;
17987;SDS011;9119;50.932;5.342;2023-07-08T01:29:31;158.37;;;92.37;;
17987;SDS011;9119;50.932;5.342;2023-07-08T01:31:57;96.53;;;55.00;;
17987;SDS011;9119;50.932;5.342;2023-07-08T01:34:27;18.33;;;9.43;;
17987;SDS011;9119;50.932;5.342;2023-07-08T01:36:56;45.90;;;26.93;;
17987;SDS011;9119;50.932;5.342;2023-07-08T01:39:27;88.13;;;49.70;;
17987;SDS011;9119;50.932;5.342;2023-07-08T01:41:55;26.13;;;15.30;;
17987;SDS011;9119;50.932;5.342;2023-07-08T01:44:31;88.00;;;49.43;;
17987;SDS011;9119;50.932;5.342;2023-07-08T01:47:07;50.30;;;28.10;;
17987;SDS011;9119;50.932;5.342;2023-07-08T01:49:37;34.73;;;20.83;;
17987;SDS011;9119;50.932;5.342;2023-07-08T01:52:05;28.10;;;15.37;;
17987;SDS011;9119;50.932;5.342;2023-07-08T01:54:32;26.17;;;15.07;;
17987;SDS011;9119;50.932;5.342;2023-07-08T01:56:58;41.47;;;20.33;;
17987;SDS011;9119;50.932;5.342;2023-07-08T01:59:25;24.37;;;11.87;;
17987;SDS011;9119;50.932;5.342;2023-07-08T02:01:51;15.23;;;8.13;;
17987;SDS011;9119;50.932;5.342;2023-07-08T02:04:23;41.53;;;22.93;;
17987;SDS011;9119;50.932;5.342;2023-07-08T02:06:51;88.80;;;47.50;;
17987;SDS011;9119;50.932;5.342;2023-07-08T02:09:18;119.70;;;69.07;;
17987;SDS011;9119;50.932;5.342;2023-07-08T02:11:43;43.13;;;24.00;;
17987;SDS011;9119;50.932;5.342;2023-07-08T02:14:09;28.27;;;16.70;;
17987;SDS011;9119;50.932;5.342;2023-07-08T02:16:35;18.93;;;7.83;;
17987;SDS011;9119;50.932;5.342;2023-07-08T02:19:00;24.50;;;15.80;;
17987;SDS011;9119;50.932;5.342;2023-07-08T02:21:26;16.33;;;7.00;;
17987;SDS011;9119;50.932;5.342;2023-07-08T02:23:56;19.37;;;8.77;;
17987;SDS011;9119;50.932;5.342;2023-07-08T02:26:22;13.30;;;6.50;;
17987;SDS011;9119;50.932;5.342;2023-07-08T02:28:48;10.53;;;6.00;;
17987;SDS011;9119;50.932;5.342;2023-07-08T02:31:14;17.47;;;6.47;;
17987;SDS011;9119;50.932;5.342;2023-07-08T02:33:39;10.60;;;6.07;;
17987;SDS011;9119;50.932;5.342;2023-07-08T02:36:05;13.40;;;6.50;;
17987;SDS011;9119;50.932;5.342;2023-07-08T02:38:31;18.47;;;10.63;;
17987;SDS011;9119;50.932;5.342;2023-07-08T02:40:57;10.97;;;6.60;;
17987;SDS011;9119;50.932;5.342;2023-07-08T02:43:23;11.83;;;6.03;;
17987;SDS011;9119;50.932;5.342;2023-07-08T02:45:49;13.00;;;6.17;;
17987;SDS011;9119;50.932;5.342;2023-07-08T02:48:16;16.77;;;7.60;;
17987;SDS011;9119;50.932;5.342;2023-07-08T02:50:43;10.20;;;6.23;;
17987;SDS011;9119;50.932;5.342;2023-07-08T02:53:09;19.77;;;10.30;;
17987;SDS011;9119;50.932;5.342;2023-07-08T02:55:34;22.10;;;9.17;;
17987;SDS011;9119;50.932;5.342;2023-07-08T02:58:00;17.97;;;6.90;;
17987;SDS011;9119;50.932;5.342;2023-07-08T03:00:25;12.57;;;6.27;;
17987;SDS011;9119;50.932;5.342;2023-07-08T03:02:51;11.13;;;6.53;;
17987;SDS011;9119;50.932;5.342;2023-07-08T03:05:17;15.87;;;6.30;;
17987;SDS011;9119;50.932;5.342;2023-07-08T03:07:42;13.67;;;5.93;;
17987;SDS011;9119;50.932;5.342;2023-07-08T03:10:08;12.93;;;6.40;;
17987;SDS011;9119;50.932;5.342;2023-07-08T03:12:34;12.80;;;6.30;;
17987;SDS011;9119;50.932;5.342;2023-07-08T03:15:00;12.67;;;6.57;;
17987;SDS011;9119;50.932;5.342;2023-07-08T03:17:26;13.97;;;6.60;;
17987;SDS011;9119;50.932;5.342;2023-07-08T03:19:51;13.23;;;6.57;;
17987;SDS011;9119;50.932;5.342;2023-07-08T03:22:17;13.10;;;6.40;;
17987;SDS011;9119;50.932;5.342;2023-07-08T03:24:43;12.57;;;6.67;;
17987;SDS011;9119;50.932;5.342;2023-07-08T03:27:14;14.23;;;7.03;;
17987;SDS011;9119;50.932;5.342;2023-07-08T03:29:40;12.77;;;6.00;;
17987;SDS011;9119;50.932;5.342;2023-07-08T03:32:07;15.57;;;6.50;;
17987;SDS011;9119;50.932;5.342;2023-07-08T03:34:37;14.53;;;6.07;;
17987;SDS011;9119;50.932;5.342;2023-07-08T03:37:03;16.90;;;6.20;;
17987;SDS011;9119;50.932;5.342;2023-07-08T03:39:32;15.70;;;6.80;;
17987;SDS011;9119;50.932;5.342;2023-07-08T03:41:58;10.00;;;6.70;;
17987;SDS011;9119;50.932;5.342;2023-07-08T03:44:24;14.33;;;6.37;;
17987;SDS011;9119;50.932;5.342;2023-07-08T03:46:50;13.30;;;6.70;;
17987;SDS011;9119;50.932;5.342;2023-07-08T03:49:16;14.63;;;6.33;;
17987;SDS011;9119;50.932;5.342;2023-07-08T03:51:50;13.33;;;6.73;;
17987;SDS011;9119;50.932;5.342;2023-07-08T03:54:19;15.57;;;7.00;;
17987;SDS011;9119;50.932;5.342;2023-07-08T03:56:46;13.97;;;6.47;;
17987;SDS011;9119;50.932;5.342;2023-07-08T03:59:12;14.50;;;6.33;;
17987;SDS011;9119;50.932;5.342;2023-07-08T04:01:37;11.43;;;6.37;;
17987;SDS011;9119;50.932;5.342;2023-07-08T04:04:06;14.37;;;6.60;;
17987;SDS011;9119;50.932;5.342;2023-07-08T04:06:34;21.23;;;9.53;;
17987;SDS011;9119;50.932;5.342;2023-07-08T04:09:00;17.80;;;6.83;;
17987;SDS011;9119;50.932;5.342;2023-07-08T04:11:26;15.93;;;6.67;;
17987;SDS011;9119;50.932;5.342;2023-07-08T04:13:52;13.33;;;6.40;;
17987;SDS011;9119;50.932;5.342;2023-07-08T04:16:22;14.43;;;6.60;;
17987;SDS011;9119;50.932;5.342;2023-07-08T04:18:50;14.70;;;6.80;;
17987;SDS011;9119;50.932;5.342;2023-07-08T04:21:18;14.63;;;6.37;;
17987;SDS011;9119;50.932;5.342;2023-07-08T04:23:44;14.50;;;7.07;;
17987;SDS011;9119;50.932;5.342;2023-07-08T04:26:10;11.57;;;6.37;;
17987;SDS011;9119;50.932;5.342;2023-07-08T04:28:36;13.73;;;7.20;;
17987;SDS011;9119;50.932;5.342;2023-07-08T04:31:02;15.37;;;6.90;;
17987;SDS011;9119;50.932;5.342;2023-07-08T04:33:29;12.87;;;6.63;;
17987;SDS011;9119;50.932;5.342;2023-07-08T04:35:55;12.67;;;6.67;;
17987;SDS011;9119;50.932;5.342;2023-07-08T04:38:22;14.97;;;7.53;;
17987;SDS011;9119;50.932;5.342;2023-07-08T04:40:50;15.10;;;6.40;;
17987;SDS011;9119;50.932;5.342;2023-07-08T04:43:17;12.70;;;6.43;;
17987;SDS011;9119;50.932;5.342;2023-07-08T04:45:44;11.87;;;6.57;;
17987;SDS011;9119;50.932;5.342;2023-07-08T04:48:15;15.47;;;6.97;;
17987;SDS011;9119;50.932;5.342;2023-07-08T04:50:46;13.43;;;7.10;;
17987;SDS011;9119;50.932;5.342;2023-07-08T04:53:14;12.97;;;7.37;;
17987;SDS011;9119;50.932;5.342;2023-07-08T04:55:45;16.00;;;7.77;;
17987;SDS011;9119;50.932;5.342;2023-07-08T04:58:21;14.13;;;7.10;;
17987;SDS011;9119;50.932;5.342;2023-07-08T05:00:46;12.77;;;6.63;;
17987;SDS011;9119;50.932;5.342;2023-07-08T05:03:12;12.00;;;6.37;;
17987;SDS011;9119;50.932;5.342;2023-07-08T05:05:38;14.37;;;7.30;;
17987;SDS011;9119;50.932;5.342;2023-07-08T05:08:05;14.13;;;6.73;;
17987;SDS011;9119;50.932;5.342;2023-07-08T05:10:32;11.80;;;6.83;;
17987;SDS011;9119;50.932;5.342;2023-07-08T05:12:57;16.37;;;9.40;;
17987;SDS011;9119;50.932;5.342;2023-07-08T05:15:23;15.47;;;7.20;;
17987;SDS011;9119;50.932;5.342;2023-07-08T05:17:49;14.33;;;7.07;;
17987;SDS011;9119;50.932;5.342;2023-07-08T05:20:16;15.23;;;7.43;;
17987;SDS011;9119;50.932;5.342;2023-07-08T05:22:47;13.27;;;7.50;;
17987;SDS011;9119;50.932;5.342;2023-07-08T05:25:13;16.43;;;7.57;;
17987;SDS011;9119;50.932;5.342;2023-07-08T05:27:40;14.07;;;7.57;;
17987;SDS011;9119;50.932;5.342;2023-07-08T05:30:06;15.07;;;7.23;;
17987;SDS011;9119;50.932;5.342;2023-07-08T05:32:33;15.07;;;7.07;;
17987;SDS011;9119;50.932;5.342;2023-07-08T05:34:59;14.73;;;7.30;;
17987;SDS011;9119;50.932;5.342;2023-07-08T05:37:24;15.87;;;7.20;;
17987;SDS011;9119;50.932;5.342;2023-07-08T05:39:54;16.67;;;7.37;;
17987;SDS011;9119;50.932;5.342;2023-07-08T05:42:20;19.70;;;7.53;;
17987;SDS011;9119;50.932;5.342;2023-07-08T05:44:47;18.10;;;7.80;;
17987;SDS011;9119;50.932;5.342;2023-07-08T05:47:13;13.33;;;7.93;;
17987;SDS011;9119;50.932;5.342;2023-07-08T05:49:39;25.40;;;8.07;;
17987;SDS011;9119;50.932;5.342;2023-07-08T05:52:05;21.73;;;8.83;;
17987;SDS011;9119;50.932;5.342;2023-07-08T05:54:36;14.00;;;8.00;;
17987;SDS011;9119;50.932;5.342;2023-07-08T05:57:06;16.90;;;8.40;;
17987;SDS011;9119;50.932;5.342;2023-07-08T05:59:34;20.83;;;9.20;;
17987;SDS011;9119;50.932;5.342;2023-07-08T06:02:01;21.70;;;9.10;;
17987;SDS011;9119;50.932;5.342;2023-07-08T06:04:30;14.77;;;8.13;;
17987;SDS011;9119;50.932;5.342;2023-07-08T06:06:56;25.93;;;9.67;;
17987;SDS011;9119;50.932;5.342;2023-07-08T06:09:23;25.40;;;10.17;;
17987;SDS011;9119;50.932;5.342;2023-07-08T06:11:48;16.47;;;8.87;;
17987;SDS011;9119;50.932;5.342;2023-07-08T06:14:14;25.57;;;9.00;;
17987;SDS011;9119;50.932;5.342;2023-07-08T06:16:40;20.07;;;10.33;;
17987;SDS011;9119;50.932;5.342;2023-07-08T06:19:06;23.03;;;11.57;;
17987;SDS011;9119;50.932;5.342;2023-07-08T06:21:32;25.03;;;12.63;;
17987;SDS011;9119;50.932;5.342;2023-07-08T06:23:57;20.90;;;13.43;;
17987;SDS011;9119;50.932;5.342;2023-07-08T06:26:23;57.93;;;20.00;;
17987;SDS011;9119;50.932;5.342;2023-07-08T06:28:49;46.10;;;19.53;;
17987;SDS011;9119;50.932;5.342;2023-07-08T06:31:15;31.27;;;13.87;;
17987;SDS011;9119;50.932;5.342;2023-07-08T06:33:41;29.03;;;13.17;;
17987;SDS011;9119;50.932;5.342;2023-07-08T06:36:07;21.67;;;12.63;;
17987;SDS011;9119;50.932;5.342;2023-07-08T06:38:33;21.37;;;12.03;;
17987;SDS011;9119;50.932;5.342;2023-07-08T06:40:59;16.10;;;10.93;;
17987;SDS011;9119;50.932;5.342;2023-07-08T06:43:24;22.90;;;12.37;;
17987;SDS011;9119;50.932;5.342;2023-07-08T06:45:50;20.90;;;10.47;;
17987;SDS011;9119;50.932;5.342;2023-07-08T06:48:16;23.40;;;11.23;;
17987;SDS011;9119;50.932;5.342;2023-07-08T06:50:45;18.03;;;10.60;;
17987;SDS011;9119;50.932;5.342;2023-07-08T06:53:11;17.67;;;9.97;;
17987;SDS011;9119;50.932;5.342;2023-07-08T06:55:36;20.57;;;10.70;;
17987;SDS011;9119;50.932;5.342;2023-07-08T06:58:02;20.43;;;10.23;;
17987;SDS011;9119;50.932;5.342;2023-07-08T07:00:27;25.57;;;10.30;;
17987;SDS011;9119;50.932;5.342;2023-07-08T07:02:53;23.47;;;10.33;;
17987;SDS011;9119;50.932;5.342;2023-07-08T07:05:19;19.93;;;9.70;;
17987;SDS011;9119;50.932;5.342;2023-07-08T07:07:44;17.70;;;9.53;;
17987;SDS011;9119;50.932;5.342;2023-07-08T07:10:10;20.87;;;9.27;;
17987;SDS011;9119;50.932;5.342;2023-07-08T07:12:36;20.53;;;10.13;;
17987;SDS011;9119;50.932;5.342;2023-07-08T07:15:02;16.87;;;9.60;;
17987;SDS011;9119;50.932;5.342;2023-07-08T07:17:28;17.83;;;10.07;;
17987;SDS011;9119;50.932;5.342;2023-07-08T07:19:54;19.10;;;10.20;;
17987;SDS011;9119;50.932;5.342;2023-07-08T07:22:20;19.63;;;9.50;;
17987;SDS011;9119;50.932;5.342;2023-07-08T07:24:46;18.87;;;9.93;;
17987;SDS011;9119;50.932;5.342;2023-07-08T07:27:11;16.13;;;8.60;;
17987;SDS011;9119;50.932;5.342;2023-07-08T07:29:47;20.20;;;8.97;;
17987;SDS011;9119;50.932;5.342;2023-07-08T07:32:15;16.53;;;9.07;;
17987;SDS011;9119;50.932;5.342;2023-07-08T07:34:41;15.70;;;8.67;;
17987;SDS011;9119;50.932;5.342;2023-07-08T07:37:11;24.37;;;10.10;;
17987;SDS011;9119;50.932;5.342;2023-07-08T07:39:38;17.77;;;9.00;;
17987;SDS011;9119;50.932;5.342;2023-07-08T07:42:04;18.60;;;9.43;;
17987;SDS011;9119;50.932;5.342;2023-07-08T07:44:30;16.57;;;8.43;;
17987;SDS011;9119;50.932;5.342;2023-07-08T07:46:56;16.43;;;9.07;;
17987;SDS011;9119;50.932;5.342;2023-07-08T07:49:22;15.17;;;8.20;;
17987;SDS011;9119;50.932;5.342;2023-07-08T07:51:48;15.20;;;8.67;;
17987;SDS011;9119;50.932;5.342;2023-07-08T07:54:13;16.10;;;8.83;;
17987;SDS011;9119;50.932;5.342;2023-07-08T07:56:40;19.03;;;8.20;;
17987;SDS011;9119;50.932;5.342;2023-07-08T07:59:05;19.20;;;9.83;;
17987;SDS011;9119;50.932;5.342;2023-07-08T08:01:31;21.33;;;9.65;;
17987;SDS011;9119;50.932;5.342;2023-07-08T08:03:57;16.03;;;8.97;;
17987;SDS011;9119;50.932;5.342;2023-07-08T08:06:22;14.27;;;9.23;;
17987;SDS011;9119;50.932;5.342;2023-07-08T08:08:48;17.93;;;10.30;;
17987;SDS011;9119;50.932;5.342;2023-07-08T08:11:15;21.80;;;9.68;;
17987;SDS011;9119;50.932;5.342;2023-07-08T08:13:41;24.70;;;9.83;;
17987;SDS011;9119;50.932;5.342;2023-07-08T08:16:07;19.13;;;9.27;;
17987;SDS011;9119;50.932;5.342;2023-07-08T08:18:33;19.47;;;9.80;;
17987;SDS011;9119;50.932;5.342;2023-07-08T08:20:59;24.00;;;10.23;;
17987;SDS011;9119;50.932;5.342;2023-07-08T08:23:24;20.50;;;10.23;;
17987;SDS011;9119;50.932;5.342;2023-07-08T08:25:51;18.63;;;9.87;;
17987;SDS011;9119;50.932;5.342;2023-07-08T08:28:17;20.37;;;10.07;;
17987;SDS011;9119;50.932;5.342;2023-07-08T08:30:46;19.63;;;10.02;;
17987;SDS011;9119;50.932;5.342;2023-07-08T08:33:16;19.93;;;9.43;;
17987;SDS011;9119;50.932;5.342;2023-07-08T08:35:43;24.83;;;10.57;;
17987;SDS011;9119;50.932;5.342;2023-07-08T08:38:09;23.10;;;9.57;;
17987;SDS011;9119;50.932;5.342;2023-07-08T08:40:35;14.40;;;8.50;;
17987;SDS011;9119;50.932;5.342;2023-07-08T08:43:11;16.73;;;8.67;;
17987;SDS011;9119;50.932;5.342;2023-07-08T08:45:42;31.43;;;9.53;;
17987;SDS011;9119;50.932;5.342;2023-07-08T08:48:30;17.10;;;8.60;;
17987;SDS011;9119;50.932;5.342;2023-07-08T08:51:10;16.90;;;8.80;;
17987;SDS011;9119;50.932;5.342;2023-07-08T08:53:38;17.05;;;8.43;;
17987;SDS011;9119;50.932;5.342;2023-07-08T08:56:20;15.82;;;8.73;;
17987;SDS011;9119;50.932;5.342;2023-07-08T08:59:02;18.08;;;8.52;;
17987;SDS011;9119;50.932;5.342;2023-07-08T09:01:42;17.33;;;9.38;;
17987;SDS011;9119;50.932;5.342;2023-07-08T09:04:16;18.52;;;8.27;;
17987;SDS011;9119;50.932;5.342;2023-07-08T09:06:48;17.55;;;8.88;;
17987;SDS011;9119;50.932;5.342;2023-07-08T09:09:17;14.85;;;8.63;;
17987;SDS011;9119;50.932;5.342;2023-07-08T09:12:06;14.88;;;7.93;;
17987;SDS011;9119;50.932;5.342;2023-07-08T09:14:37;16.77;;;8.52;;
17987;SDS011;9119;50.932;5.342;2023-07-08T09:19:41;14.90;;;7.85;;
17987;SDS011;9119;50.932;5.342;2023-07-08T09:27:56;67.78;;;11.30;;
17987;SDS011;9119;50.932;5.342;2023-07-08T09:30:22;23.02;;;8.48;;
17987;SDS011;9119;50.932;5.342;2023-07-08T09:32:50;13.40;;;7.55;;
17987;SDS011;9119;50.932;5.342;2023-07-08T09:35:21;14.50;;;8.43;;
17987;SDS011;9119;50.932;5.342;2023-07-08T09:37:48;13.18;;;7.35;;
17987;SDS011;9119;50.932;5.342;2023-07-08T09:40:19;12.75;;;7.05;;
17987;SDS011;9119;50.932;5.342;2023-07-08T09:42:51;14.35;;;7.72;;
17987;SDS011;9119;50.932;5.342;2023-07-08T09:45:23;15.05;;;8.20;;
17987;SDS011;9119;50.932;5.342;2023-07-08T09:47:55;12.60;;;7.80;;
17987;SDS011;9119;50.932;5.342;2023-07-08T09:50:26;11.68;;;7.03;;
17987;SDS011;9119;50.932;5.342;2023-07-08T09:52:54;13.32;;;7.65;;
17987;SDS011;9119;50.932;5.342;2023-07-08T09:55:30;14.10;;;8.07;;
17987;SDS011;9119;50.932;5.342;2023-07-08T09:57:56;13.23;;;7.35;;
17987;SDS011;9119;50.932;5.342;2023-07-08T10:00:32;14.57;;;8.38;;
17987;SDS011;9119;50.932;5.342;2023-07-08T10:03:00;13.18;;;7.40;;
17987;SDS011;9119;50.932;5.342;2023-07-08T10:05:40;14.15;;;7.35;;
17987;SDS011;9119;50.932;5.342;2023-07-08T10:08:12;11.05;;;7.05;;
17987;SDS011;9119;50.932;5.342;2023-07-08T10:10:43;15.45;;;8.40;;
17987;SDS011;9119;50.932;5.342;2023-07-08T10:16:02;14.82;;;7.82;;
17987;SDS011;9119;50.932;5.342;2023-07-08T10:18:35;9.95;;;6.43;;
17987;SDS011;9119;50.932;5.342;2023-07-08T11:05:54;18.30;;;7.63;;
17987;SDS011;9119;50.932;5.342;2023-07-08T11:08:23;11.45;;;7.15;;
17987;SDS011;9119;50.932;5.342;2023-07-08T11:13:58;12.88;;;7.38;;
17987;SDS011;9119;50.932;5.342;2023-07-08T11:16:36;12.43;;;7.30;;
17987;SDS011;9119;50.932;5.342;2023-07-08T11:19:09;14.63;;;7.75;;
17987;SDS011;9119;50.932;5.342;2023-07-08T11:21:42;11.52;;;7.57;;
17987;SDS011;9119;50.932;5.342;2023-07-08T11:24:44;16.45;;;8.63;;
17987;SDS011;9119;50.932;5.342;2023-07-08T11:32:28;19.58;;;7.47;;
17987;SDS011;9119;50.932;5.342;2023-07-08T11:34:56;13.75;;;7.65;;
17987;SDS011;9119;50.932;5.342;2023-07-08T11:37:24;10.55;;;6.97;;
17987;SDS011;9119;50.932;5.342;2023-07-08T11:39:57;12.05;;;6.82;;
17987;SDS011;9119;50.932;5.342;2023-07-08T11:42:51;9.30;;;6.13;;
17987;SDS011;9119;50.932;5.342;2023-07-08T11:45:31;10.18;;;6.03;;
17987;SDS011;9119;50.932;5.342;2023-07-08T11:48:03;9.55;;;6.53;;
17987;SDS011;9119;50.932;5.342;2023-07-08T11:50:48;15.68;;;7.57;;
17987;SDS011;9119;50.932;5.342;2023-07-08T11:55:58;10.45;;;7.07;;
17987;SDS011;9119;50.932;5.342;2023-07-08T12:01:22;14.57;;;6.63;;
17987;SDS011;9119;50.932;5.342;2023-07-08T12:04:16;11.20;;;7.72;;
17987;SDS011;9119;50.932;5.342;2023-07-08T12:06:40;14.88;;;7.40;;
17987;SDS011;9119;50.932;5.342;2023-07-08T12:09:15;9.98;;;6.35;;
17987;SDS011;9119;50.932;5.342;2023-07-08T12:11:48;10.63;;;6.90;;
17987;SDS011;9119;50.932;5.342;2023-07-08T12:14:18;9.68;;;6.15;;
17987;SDS011;9119;50.932;5.342;2023-07-08T12:16:43;14.27;;;6.25;;
17987;SDS011;9119;50.932;5.342;2023-07-08T12:19:11;8.57;;;6.28;;
17987;SDS011;9119;50.932;5.342;2023-07-08T12:21:44;12.63;;;6.75;;
17987;SDS011;9119;50.932;5.342;2023-07-08T12:24:11;13.95;;;7.07;;
17987;SDS011;9119;50.932;5.342;2023-07-08T12:26:39;14.80;;;6.63;;
17987;SDS011;9119;50.932;5.342;2023-07-08T12:29:05;13.13;;;6.07;;
17987;SDS011;9119;50.932;5.342;2023-07-08T12:31:31;12.40;;;6.57;;
17987;SDS011;9119;50.932;5.342;2023-07-08T12:33:57;8.90;;;5.30;;
17987;SDS011;9119;50.932;5.342;2023-07-08T12:36:25;10.95;;;5.90;;
17987;SDS011;9119;50.932;5.342;2023-07-08T12:38:56;11.13;;;6.00;;
17987;SDS011;9119;50.932;5.342;2023-07-08T12:41:25;13.70;;;6.65;;
17987;SDS011;9119;50.932;5.342;2023-07-08T12:43:53;15.35;;;7.60;;
17987;SDS011;9119;50.932;5.342;2023-07-08T12:46:20;9.77;;;5.57;;
17987;SDS011;9119;50.932;5.342;2023-07-08T12:48:47;10.80;;;6.50;;
17987;SDS011;9119;50.932;5.342;2023-07-08T12:51:14;10.70;;;6.65;;
17987;SDS011;9119;50.932;5.342;2023-07-08T12:53:42;8.90;;;6.03;;
17987;SDS011;9119;50.932;5.342;2023-07-08T12:56:08;11.65;;;6.43;;
17987;SDS011;9119;50.932;5.342;2023-07-08T12:58:36;12.57;;;6.60;;
17987;SDS011;9119;50.932;5.342;2023-07-08T13:01:05;11.50;;;6.72;;
17987;SDS011;9119;50.932;5.342;2023-07-08T13:03:36;17.33;;;8.23;;
17987;SDS011;9119;50.932;5.342;2023-07-08T13:06:06;14.52;;;6.85;;
17987;SDS011;9119;50.932;5.342;2023-07-08T13:08:35;10.27;;;6.22;;
17987;SDS011;9119;50.932;5.342;2023-07-08T13:11:02;13.82;;;6.25;;
17987;SDS011;9119;50.932;5.342;2023-07-08T13:13:31;12.60;;;6.88;;
17987;SDS011;9119;50.932;5.342;2023-07-08T13:16:09;13.57;;;6.57;;
17987;SDS011;9119;50.932;5.342;2023-07-08T13:18:41;16.33;;;6.85;;
17987;SDS011;9119;50.932;5.342;2023-07-08T13:21:12;12.63;;;6.55;;
17987;SDS011;9119;50.932;5.342;2023-07-08T13:23:40;10.52;;;6.25;;
17987;SDS011;9119;50.932;5.342;2023-07-08T13:26:17;12.05;;;6.78;;
17987;SDS011;9119;50.932;5.342;2023-07-08T13:28:44;13.75;;;6.45;;
17987;SDS011;9119;50.932;5.342;2023-07-08T13:31:23;18.42;;;7.28;;
17987;SDS011;9119;50.932;5.342;2023-07-08T13:33:56;12.80;;;7.22;;
17987;SDS011;9119;50.932;5.342;2023-07-08T13:36:24;11.00;;;6.35;;
17987;SDS011;9119;50.932;5.342;2023-07-08T13:39:05;11.70;;;5.88;;
17987;SDS011;9119;50.932;5.342;2023-07-08T13:41:33;10.15;;;5.53;;
17987;SDS011;9119;50.932;5.342;2023-07-08T13:44:04;13.00;;;5.85;;
17987;SDS011;9119;50.932;5.342;2023-07-08T13:52:04;13.15;;;6.90;;
17987;SDS011;9119;50.932;5.342;2023-07-08T13:54:34;11.32;;;6.78;;
17987;SDS011;9119;50.932;5.342;2023-07-08T13:57:09;10.52;;;6.22;;
17987;SDS011;9119;50.932;5.342;2023-07-08T13:59:36;18.27;;;7.70;;
17987;SDS011;9119;50.932;5.342;2023-07-08T14:02:08;17.20;;;6.50;;
17987;SDS011;9119;50.932;5.342;2023-07-08T14:04:42;14.80;;;7.20;;
17987;SDS011;9119;50.932;5.342;2023-07-08T14:07:19;12.73;;;6.40;;
17987;SDS011;9119;50.932;5.342;2023-07-08T14:09:55;17.55;;;6.95;;
17987;SDS011;9119;50.932;5.342;2023-07-08T14:12:21;10.82;;;6.53;;
17987;SDS011;9119;50.932;5.342;2023-07-08T14:14:51;18.10;;;7.15;;
17987;SDS011;9119;50.932;5.342;2023-07-08T14:17:19;17.25;;;8.18;;
17987;SDS011;9119;50.932;5.342;2023-07-08T14:19:48;14.02;;;7.68;;
17987;SDS011;9119;50.932;5.342;2023-07-08T14:24:40;13.38;;;7.03;;
17987;SDS011;9119;50.932;5.342;2023-07-08T14:27:07;12.63;;;6.75;;
17987;SDS011;9119;50.932;5.342;2023-07-08T14:29:37;11.52;;;6.47;;
17987;SDS011;9119;50.932;5.342;2023-07-08T14:32:03;16.48;;;6.95;;
17987;SDS011;9119;50.932;5.342;2023-07-08T14:34:29;14.25;;;6.38;;
17987;SDS011;9119;50.932;5.342;2023-07-08T14:36:58;11.48;;;5.63;;
17987;SDS011;9119;50.932;5.342;2023-07-08T14:39:23;14.32;;;6.43;;
17987;SDS011;9119;50.932;5.342;2023-07-08T14:41:49;13.88;;;6.15;;
17987;SDS011;9119;50.932;5.342;2023-07-08T14:44:26;12.45;;;5.15;;
17987;SDS011;9119;50.932;5.342;2023-07-08T14:46:58;13.43;;;4.90;;
17987;SDS011;9119;50.932;5.342;2023-07-08T14:49:24;13.88;;;5.28;;
17987;SDS011;9119;50.932;5.342;2023-07-08T14:51:52;11.82;;;5.20;;
17987;SDS011;9119;50.932;5.342;2023-07-08T14:54:18;13.23;;;5.05;;
17987;SDS011;9119;50.932;5.342;2023-07-08T14:56:47;12.98;;;5.22;;
17987;SDS011;9119;50.932;5.342;2023-07-08T14:59:15;9.10;;;4.50;;
17987;SDS011;9119;50.932;5.342;2023-07-08T15:01:45;11.27;;;5.22;;
17987;SDS011;9119;50.932;5.342;2023-07-08T15:04:11;13.52;;;6.95;;
17987;SDS011;9119;50.932;5.342;2023-07-08T15:06:38;16.33;;;7.03;;
17987;SDS011;9119;50.932;5.342;2023-07-08T15:09:04;14.75;;;5.38;;
17987;SDS011;9119;50.932;5.342;2023-07-08T15:11:33;15.50;;;5.20;;
17987;SDS011;9119;50.932;5.342;2023-07-08T15:14:00;8.80;;;4.57;;
17987;SDS011;9119;50.932;5.342;2023-07-08T15:16:26;9.88;;;5.20;;
17987;SDS011;9119;50.932;5.342;2023-07-08T15:18:52;15.77;;;4.95;;
17987;SDS011;9119;50.932;5.342;2023-07-08T15:21:18;11.15;;;5.10;;
17987;SDS011;9119;50.932;5.342;2023-07-08T15:23:43;13.25;;;5.32;;
17987;SDS011;9119;50.932;5.342;2023-07-08T15:26:12;9.95;;;4.47;;
17987;SDS011;9119;50.932;5.342;2023-07-08T15:31:08;8.25;;;3.88;;
17987;SDS011;9119;50.932;5.342;2023-07-08T15:33:38;9.20;;;4.78;;
17987;SDS011;9119;50.932;5.342;2023-07-08T15:36:04;11.13;;;4.57;;
17987;SDS011;9119;50.932;5.342;2023-07-08T15:38:29;12.60;;;5.32;;
17987;SDS011;9119;50.932;5.342;2023-07-08T15:40:55;9.60;;;4.50;;
17987;SDS011;9119;50.932;5.342;2023-07-08T15:43:21;10.00;;;5.40;;
17987;SDS011;9119;50.932;5.342;2023-07-08T15:45:46;12.27;;;4.55;;
17987;SDS011;9119;50.932;5.342;2023-07-08T15:48:16;9.10;;;4.85;;
17987;SDS011;9119;50.932;5.342;2023-07-08T15:50:43;12.95;;;5.53;;
17987;SDS011;9119;50.932;5.342;2023-07-08T15:53:09;10.07;;;5.15;;
17987;SDS011;9119;50.932;5.342;2023-07-08T15:55:36;9.43;;;5.07;;
17987;SDS011;9119;50.932;5.342;2023-07-08T15:58:05;10.70;;;5.88;;
17987;SDS011;9119;50.932;5.342;2023-07-08T16:00:36;9.88;;;5.50;;
17987;SDS011;9119;50.932;5.342;2023-07-08T16:03:11;12.07;;;5.70;;
17987;SDS011;9119;50.932;5.342;2023-07-08T16:05:42;9.55;;;5.30;;
17987;SDS011;9119;50.932;5.342;2023-07-08T16:08:08;10.55;;;5.00;;
17987;SDS011;9119;50.932;5.342;2023-07-08T16:10:34;13.20;;;6.03;;
17987;SDS011;9119;50.932;5.342;2023-07-08T16:13:02;14.88;;;6.88;;
17987;SDS011;9119;50.932;5.342;2023-07-08T16:15:32;11.30;;;5.95;;
17987;SDS011;9119;50.932;5.342;2023-07-08T16:18:01;10.05;;;5.88;;
17987;SDS011;9119;50.932;5.342;2023-07-08T16:20:28;15.45;;;6.00;;